Time;durP1;ratioP1;P1;durP2;ratioP2;P2;SDS_P1;SDS_P2;PMS_P1;PMS_P2;Temp;Humidity;BMP_temperature;BMP_pressure;BME280_temperature;BME280_humidity;BME280_pressure;Samples;Min_cycle;Max_cycle;Signal;HPM_P1;HPM_P2
2023/08/15 00:00:37;;;;;;;;;;;24.90;52.50;;;21.13;87.68;95543.38;4994543;28;19916;-47
2023/08/15 00:03:03;;;;;;;;;;;24.80;52.50;;;21.06;89.00;95537.69;4993250;28;19909;-48
2023/08/15 00:05:30;;;;;;;;;;;24.80;52.60;;;21.01;89.19;95541.41;4994253;28;19913;-46
2023/08/15 00:07:55;;;;;;;;;;;24.70;52.70;;;20.91;89.08;95534.47;4981310;28;19972;-48
2023/08/15 00:10:21;;;;;;;;;;;24.60;52.70;;;20.83;89.86;95532.63;4993769;28;19952;-45
2023/08/15 00:12:47;;;;;;;;;;;24.50;52.80;;;20.77;90.29;95537.44;4994361;28;20007;-48
2023/08/15 00:15:13;;;;;;;;;;;24.50;52.90;;;20.72;90.90;95534.94;4993271;28;19963;-46
2023/08/15 00:17:38;;;;;;;;;;;24.40;53.00;;;20.62;91.79;95543.47;4994380;28;19909;-47
2023/08/15 00:20:06;;;;;;;;;;;24.40;53.10;;;20.55;91.77;95535.84;4993113;28;19910;-49
2023/08/15 00:22:32;;;;;;;;;;;24.30;53.10;;;20.50;92.04;95529.84;4991706;28;19920;-46
2023/08/15 00:24:57;;;;;;;;;;;24.30;53.20;;;20.41;92.97;95532.59;4994107;28;19909;-46
2023/08/15 00:27:23;;;;;;;;;;;24.10;53.30;;;20.37;93.15;95534.38;4982420;28;19916;-51
2023/08/15 00:29:49;;;;;;;;;;;24.10;53.40;;;20.31;93.43;95531.06;4994181;28;20325;-49
2023/08/15 00:32:15;;;;;;;;;;;24.00;53.50;;;20.25;93.83;95521.56;4993093;28;19909;-48
2023/08/15 00:34:40;;;;;;;;;;;24.00;53.60;;;20.14;95.57;95525.75;4994080;28;19963;-45
2023/08/15 00:37:06;;;;;;;;;;;23.90;53.70;;;19.97;96.81;95528.56;4993709;28;19909;-45
2023/08/15 00:39:32;;;;;;;;;;;23.90;53.80;;;19.93;96.99;95539.22;4986328;28;19913;-46
2023/08/15 00:41:57;;;;;;;;;;;23.80;53.80;;;19.90;96.57;95534.47;4987992;28;19952;-45
2023/08/15 00:44:23;;;;;;;;;;;23.70;54.00;;;19.84;97.31;95533.06;4993067;28;20375;-47
2023/08/15 00:46:50;;;;;;;;;;;23.70;54.10;;;19.72;97.12;95531.03;4980584;28;19920;-46
2023/08/15 00:49:16;;;;;;;;;;;23.60;54.10;;;19.70;97.07;95522.44;4993532;28;20330;-53
2023/08/15 00:51:42;;;;;;;;;;;23.50;54.10;;;19.69;96.52;95515.47;4992287;28;19921;-48
2023/08/15 00:54:08;;;;;;;;;;;23.50;54.30;;;19.66;96.81;95518.03;4987019;28;19909;-51
2023/08/15 00:56:34;;;;;;;;;;;23.40;54.30;;;19.57;97.06;95513.41;4985728;28;19924;-48
2023/08/15 00:59:01;;;;;;;;;;;23.30;54.40;;;19.53;97.70;95509.78;4980001;28;19917;-51
2023/08/15 01:01:26;;;;;;;;;;;23.30;54.50;;;19.52;98.35;95508.16;4995390;28;20008;-47
2023/08/15 01:03:53;;;;;;;;;;;23.30;54.60;;;19.44;98.81;95505.53;4983990;28;20392;-53
2023/08/15 01:06:18;;;;;;;;;;;23.20;54.70;;;19.40;99.04;95508.88;4992958;28;19913;-48
2023/08/15 01:08:44;;;;;;;;;;;23.20;54.80;;;19.38;99.63;95513.00;4992334;28;20478;-52
2023/08/15 01:11:10;;;;;;;;;;;23.10;54.80;;;19.37;99.69;95522.22;4991757;28;19916;-50
2023/08/15 01:14:02;;;;;;;;;;;23.10;55.00;;;19.34;99.60;95510.16;4993142;28;19917;-53
2023/08/15 01:16:40;;;;;;;;;;;23.10;55.10;;;19.33;99.43;95513.94;4990742;28;19916;-52
2023/08/15 01:19:30;;;;;;;;;;;23.10;55.20;;;19.31;99.68;95504.59;4996794;28;19910;-53
2023/08/15 01:22:00;;;;;;;;;;;23.00;55.30;;;19.26;99.42;95507.47;4986227;28;19920;-51
2023/08/15 01:24:28;;;;;;;;;;;23.00;55.40;;;19.24;99.62;95506.97;4994700;28;19917;-51
2023/08/15 01:26:54;;;;;;;;;;;23.00;55.40;;;19.26;99.60;95507.47;5005421;28;19920;-51
2023/08/15 01:29:19;;;;;;;;;;;23.00;55.50;;;19.28;99.15;95497.94;4979398;28;20293;-49
2023/08/15 01:32:03;;;;;;;;;;;23.00;55.50;;;19.27;99.36;95500.94;4992041;28;19909;-49
2023/08/15 01:34:40;;;;;;;;;;;23.00;55.50;;;19.28;99.49;95505.25;4993949;28;19909;-47
2023/08/15 01:37:17;;;;;;;;;;;23.00;55.60;;;19.30;99.28;95501.09;4994685;28;20048;-50
2023/08/15 01:39:49;;;;;;;;;;;23.00;55.70;;;19.30;99.97;95497.59;4993059;28;19910;-48
2023/08/15 01:42:19;;;;;;;;;;;23.00;55.60;;;19.30;99.58;95498.38;4985502;28;20288;-49
2023/08/15 01:44:47;;;;;;;;;;;23.10;55.70;;;19.35;99.32;95497.44;4999412;28;19916;-49
2023/08/15 01:47:13;;;;;;;;;;;23.10;55.80;;;19.37;99.69;95496.00;4975599;28;20020;-50
2023/08/15 01:49:38;;;;;;;;;;;23.10;55.80;;;19.44;99.56;95487.41;4991241;28;20036;-52
2023/08/15 01:52:04;;;;;;;;;;;23.10;55.80;;;19.45;99.74;95497.09;4990406;28;19955;-47
2023/08/15 01:54:30;;;;;;;;;;;23.10;55.90;;;19.46;99.81;95484.38;4983055;28;19909;-47
2023/08/15 01:56:56;;;;;;;;;;;23.10;55.90;;;19.50;99.38;95490.72;4984760;28;20044;-49
2023/08/15 01:59:22;;;;;;;;;;;23.20;55.90;;;19.52;99.29;95491.97;4982975;28;19909;-47
2023/08/15 02:01:47;;;;;;;;;;;23.20;56.00;;;19.50;100.00;95490.72;4992460;28;20279;-50
2023/08/15 02:04:13;;;;;;;;;;;23.20;55.90;;;19.56;99.50;95494.84;4991450;28;19917;-47
2023/08/15 02:06:39;;;;;;;;;;;23.30;56.00;;;19.53;100.00;95487.38;4992262;28;19921;-47
2023/08/15 02:09:04;;;;;;;;;;;23.30;56.00;;;19.55;100.00;95491.31;4991332;28;19909;-49
2023/08/15 02:11:30;;;;;;;;;;;23.30;56.00;;;19.56;99.09;95492.91;4978995;28;19992;-48
2023/08/15 02:13:58;;;;;;;;;;;23.30;56.00;;;19.63;98.05;95495.13;4992447;28;20295;-48
2023/08/15 02:16:24;;;;;;;;;;;23.40;56.10;;;19.64;99.28;95492.09;4991917;28;20348;-48
2023/08/15 02:18:49;;;;;;;;;;;23.40;56.10;;;19.59;100.00;95481.47;4992271;28;20008;-48
2023/08/15 02:21:15;;;;;;;;;;;23.40;56.10;;;19.66;99.81;95486.41;4991068;28;19935;-49
2023/08/15 02:23:41;;;;;;;;;;;23.40;56.10;;;19.67;93.31;95479.06;4992324;28;19909;-48
2023/08/15 02:26:07;;;;;;;;;;;23.40;56.10;;;19.81;95.39;95475.03;4990906;28;19913;-47
2023/08/15 02:28:32;;;;;;;;;;;23.50;56.20;;;19.92;95.74;95472.75;4992332;28;20050;-52
2023/08/15 02:30:58;;;;;;;;;;;23.50;56.20;;;19.96;95.21;95468.28;4991895;28;19913;-47
2023/08/15 02:33:24;;;;;;;;;;;23.60;56.20;;;20.01;93.47;95464.59;4991136;28;20075;-47
2023/08/15 02:35:52;;;;;;;;;;;23.60;56.10;;;20.00;90.11;95461.09;4992051;28;20279;-48
2023/08/15 02:38:18;;;;;;;;;;;23.70;56.10;;;20.08;92.31;95460.25;4991447;28;20246;-49
2023/08/15 02:40:43;;;;;;;;;;;23.80;56.10;;;20.13;91.53;95461.97;4992412;28;19948;-47
2023/08/15 02:43:09;;;;;;;;;;;23.80;56.00;;;20.18;90.61;95459.09;4995611;28;19916;-50
2023/08/15 02:45:35;;;;;;;;;;;23.80;55.90;;;20.20;91.72;95461.44;4994232;28;20323;-47
2023/08/15 02:48:00;;;;;;;;;;;23.90;55.90;;;20.23;90.27;95464.28;4995570;28;20360;-49
2023/08/15 02:50:27;;;;;;;;;;;23.90;55.80;;;20.24;87.37;95463.16;4994197;28;19924;-52
2023/08/15 02:52:53;;;;;;;;;;;23.90;55.80;;;20.31;88.02;95468.06;4995250;28;20018;-48
2023/08/15 02:55:19;;;;;;;;;;;24.00;55.80;;;20.39;85.67;95466.41;4982490;28;20392;-49
2023/08/15 02:57:44;;;;;;;;;;;24.10;55.70;;;20.46;86.60;95463.97;4994487;28;19914;-52
2023/08/15 03:00:11;;;;;;;;;;;24.10;55.60;;;20.49;84.77;95455.97;4995126;28;19910;-48
2023/08/15 03:02:40;;;;;;;;;;;24.10;55.50;;;20.53;85.05;95454.25;4994145;28;19909;-48
2023/08/15 03:05:06;;;;;;;;;;;24.30;55.50;;;20.55;85.84;95449.25;4994996;28;19909;-50
2023/08/15 03:07:32;;;;;;;;;;;24.30;55.40;;;20.58;84.67;95449.75;4995319;28;20012;-50
2023/08/15 03:09:58;;;;;;;;;;;24.30;55.30;;;20.53;84.78;95443.41;4994044;28;20027;-49
2023/08/15 03:12:24;;;;;;;;;;;24.30;55.20;;;20.55;84.77;95437.66;4995199;28;19978;-48
2023/08/15 03:14:49;;;;;;;;;;;24.30;55.10;;;20.49;87.00;95445.16;4994065;28;19916;-50
2023/08/15 03:17:18;;;;;;;;;;;24.30;55.00;;;20.45;86.25;95436.13;4994944;28;19913;-49
2023/08/15 03:19:44;;;;;;;;;;;24.30;55.00;;;20.50;85.38;95437.84;4994785;28;20000;-51
2023/08/15 03:22:10;;;;;;;;;;;24.30;55.00;;;20.45;84.31;95429.91;4993606;28;20000;-50
2023/08/15 03:24:36;;;;;;;;;;;24.30;55.00;;;20.48;85.46;95430.03;4995051;28;19909;-49
2023/08/15 03:27:02;;;;;;;;;;;24.30;55.00;;;20.52;85.86;95441.03;4986393;28;19949;-47
2023/08/15 03:29:27;;;;;;;;;;;24.30;55.00;;;20.44;85.21;95434.53;4992118;28;20378;-47
2023/08/15 03:31:55;;;;;;;;;;;24.30;55.00;;;20.49;86.01;95442.44;4994779;28;19937;-48
2023/08/15 03:34:22;;;;;;;;;;;24.20;54.90;;;20.48;85.30;95440.88;4993516;28;19910;-52
2023/08/15 03:36:47;;;;;;;;;;;24.20;54.90;;;20.49;85.58;95449.78;4994769;28;19932;-50
2023/08/15 03:39:13;;;;;;;;;;;24.20;55.00;;;20.48;85.38;95446.28;4993478;28;20365;-50
2023/08/15 03:41:39;;;;;;;;;;;24.20;54.90;;;20.45;85.36;95444.22;4994628;28;19981;-48
2023/08/15 03:44:05;;;;;;;;;;;24.20;54.90;;;20.43;86.73;95451.91;4993535;28;19916;-48
2023/08/15 03:46:31;;;;;;;;;;;24.20;54.90;;;20.32;88.76;95450.72;4994413;28;20260;-53
2023/08/15 03:48:58;;;;;;;;;;;24.20;54.90;;;20.30;88.66;95445.63;4994442;28;19948;-51
2023/08/15 03:51:23;;;;;;;;;;;24.10;54.90;;;20.24;88.80;95451.56;4993219;28;19910;-52
2023/08/15 03:53:49;;;;;;;;;;;24.10;54.90;;;20.17;89.47;95454.78;4989443;28;19914;-52
2023/08/15 03:56:15;;;;;;;;;;;24.00;55.00;;;20.15;90.04;95457.03;4984248;28;20319;-49
2023/08/15 03:58:41;;;;;;;;;;;24.00;55.10;;;20.09;89.48;95455.66;4993953;28;19909;-48
2023/08/15 04:01:06;;;;;;;;;;;23.90;55.10;;;20.08;89.80;95462.16;4993822;28;19909;-50
2023/08/15 04:03:32;;;;;;;;;;;23.90;55.20;;;20.07;88.14;95460.59;4992741;28;19920;-48
2023/08/15 04:05:58;;;;;;;;;;;23.80;55.20;;;20.06;88.66;95464.41;4993849;28;19913;-53
2023/08/15 04:08:25;;;;;;;;;;;23.80;55.20;;;20.03;88.61;95468.56;4992418;28;26945;-50
2023/08/15 04:10:51;;;;;;;;;;;23.80;55.30;;;20.00;88.13;95471.91;4998487;28;19910;-47
2023/08/15 04:13:17;;;;;;;;;;;23.80;55.30;;;20.01;87.94;95486.22;4991117;28;19946;-47
2023/08/15 04:15:43;;;;;;;;;;;23.80;55.30;;;19.98;87.88;95486.88;4992589;28;19913;-47
2023/08/15 04:18:09;;;;;;;;;;;23.80;55.30;;;19.97;88.20;95491.50;4993686;28;19916;-50
2023/08/15 04:20:37;;;;;;;;;;;23.80;55.30;;;19.97;87.76;95485.28;4992902;28;20008;-53
2023/08/15 04:23:04;;;;;;;;;;;23.80;55.40;;;19.99;87.79;95488.44;4993722;28;19913;-53
2023/08/15 04:25:30;;;;;;;;;;;23.80;55.40;;;19.99;87.00;95483.03;4993942;28;19914;-49
2023/08/15 04:27:56;;;;;;;;;;;23.80;55.30;;;19.97;89.94;95491.50;4992387;28;19909;-50
2023/08/15 04:30:21;;;;;;;;;;;23.80;55.30;;;19.94;89.83;95494.06;4993669;28;19921;-49
2023/08/15 04:32:47;;;;;;;;;;;23.80;55.20;;;19.84;90.28;95487.91;4992274;28;19909;-50
2023/08/15 04:35:16;;;;;;;;;;;23.80;55.20;;;19.82;90.48;95494.75;4993393;28;19979;-52
2023/08/15 04:37:42;;;;;;;;;;;23.70;55.20;;;19.81;90.81;95502.06;4993488;28;20020;-53
2023/08/15 04:40:14;;;;;;;;;;;23.70;55.30;;;19.78;89.72;95513.53;4984268;28;20004;-49
2023/08/15 04:42:41;;;;;;;;;;;23.70;55.30;;;19.78;89.93;95507.34;4992081;28;19910;-51
2023/08/15 04:45:08;;;;;;;;;;;23.70;55.40;;;19.79;89.75;95511.63;4992285;28;19964;-50
2023/08/15 04:47:35;;;;;;;;;;;23.70;55.40;;;19.80;89.74;95518.59;4993100;28;19940;-52
2023/08/15 04:50:00;;;;;;;;;;;23.70;55.40;;;19.79;91.32;95523.22;4993026;28;20309;-49
2023/08/15 04:52:26;;;;;;;;;;;23.60;55.40;;;19.76;91.94;95528.47;4992048;28;19913;-53
2023/08/15 04:54:52;;;;;;;;;;;23.70;55.50;;;19.79;91.65;95525.13;4993215;28;19949;-50
2023/08/15 04:57:17;;;;;;;;;;;23.60;55.50;;;19.77;93.31;95527.34;4988835;28;19924;-49
2023/08/15 04:59:43;;;;;;;;;;;23.60;55.50;;;19.72;94.21;95525.63;4993109;28;19916;-47
2023/08/15 05:02:09;;;;;;;;;;;23.60;55.50;;;19.75;93.25;95529.59;4991999;28;20008;-45
2023/08/15 05:04:35;;;;;;;;;;;23.70;55.70;;;19.79;93.47;95535.94;4992338;28;19910;-49
2023/08/15 05:07:00;;;;;;;;;;;23.70;55.70;;;19.83;92.98;95534.16;4992775;28;20004;-53
2023/08/15 05:09:30;;;;;;;;;;;23.70;55.70;;;19.80;93.60;95543.69;5013658;28;19932;-52
2023/08/15 05:11:56;;;;;;;;;;;23.70;55.70;;;19.81;93.56;95548.00;4989007;28;19916;-49
2023/08/15 05:14:22;;;;;;;;;;;23.80;55.80;;;19.91;93.12;95551.47;4985431;28;19913;-49
2023/08/15 05:16:50;;;;;;;;;;;23.80;55.70;;;19.94;93.75;95554.31;4992753;28;20269;-50
2023/08/15 05:19:15;;;;;;;;;;;23.90;55.80;;;20.01;93.00;95553.81;4993014;28;19916;-50
2023/08/15 05:21:41;;;;;;;;;;;23.90;55.80;;;20.03;93.22;95551.56;4991594;28;19909;-49
2023/08/15 05:24:07;;;;;;;;;;;24.00;55.80;;;20.10;93.35;95560.75;4992072;28;20745;-51
2023/08/15 05:26:33;;;;;;;;;;;24.00;55.80;;;20.19;93.38;95559.94;4989548;28;19953;-54
2023/08/15 05:28:59;;;;;;;;;;;24.10;55.80;;;20.23;93.74;95564.34;4992351;28;19948;-50
2023/08/15 05:31:25;;;;;;;;;;;24.10;55.80;;;20.25;94.16;95570.22;4990109;28;19913;-50
2023/08/15 05:33:51;;;;;;;;;;;24.20;56.40;;;20.32;93.54;95561.59;4989687;28;19909;-48
2023/08/15 05:36:16;;;;;;;;;;;24.30;55.80;;;20.38;93.06;95563.00;4991556;28;19909;-47
2023/08/15 05:38:42;;;;;;;;;;;24.30;55.80;;;20.42;92.50;95576.66;4990859;28;19917;-47
2023/08/15 05:41:08;;;;;;;;;;;24.40;55.80;;;20.50;93.28;95583.94;4990657;28;20387;-46
2023/08/15 05:43:34;;;;;;;;;;;24.50;55.80;;;20.55;92.94;95583.75;4992745;28;20004;-47
2023/08/15 05:45:59;;;;;;;;;;;24.50;55.70;;;20.59;93.76;95594.72;4991317;28;20364;-49
2023/08/15 05:48:25;;;;;;;;;;;24.60;55.60;;;20.65;93.15;95596.13;4991724;28;21241;-48
2023/08/15 05:50:51;;;;;;;;;;;24.70;55.60;;;20.71;94.88;95601.00;4991028;28;19961;-50
2023/08/15 05:53:17;;;;;;;;;;;24.80;55.60;;;20.77;94.11;95601.59;4990773;28;19909;-46
2023/08/15 05:55:42;;;;;;;;;;;24.80;55.60;;;20.78;94.47;95608.63;4991957;28;19940;-45
2023/08/15 05:58:08;;;;;;;;;;;24.90;55.50;;;20.68;93.99;95596.28;4989905;28;19963;-49
2023/08/15 06:00:34;;;;;;;;;;;24.90;55.50;;;20.82;93.29;95601.41;4990106;28;20380;-52
2023/08/15 06:03:00;;;;;;;;;;;25.00;55.50;;;20.91;92.93;95601.38;4989094;28;19943;-51
2023/08/15 06:05:30;;;;;;;;;;;25.00;55.50;;;20.94;93.35;95598.78;4990378;28;19909;-50
2023/08/15 06:07:56;;;;;;;;;;;25.10;55.50;;;21.01;93.39;95599.03;4988754;28;20015;-51
2023/08/15 06:10:22;;;;;;;;;;;25.10;55.50;;;21.11;92.52;95602.47;4988054;28;19917;-47
2023/08/15 06:12:48;;;;;;;;;;;25.10;55.60;;;21.20;92.61;95614.03;4991245;28;19909;-47
2023/08/15 06:15:15;;;;;;;;;;;25.20;55.60;;;21.28;91.82;95610.47;4991022;28;19910;-47
2023/08/15 06:17:41;;;;;;;;;;;25.30;55.60;;;21.30;92.25;95610.13;4994453;28;19996;-49
2023/08/15 06:20:10;;;;;;;;;;;25.30;55.60;;;21.37;92.20;95615.81;4977662;28;19953;-48
2023/08/15 06:22:36;;;;;;;;;;;25.40;56.20;;;21.42;92.58;95626.47;4986089;28;19909;-48
2023/08/15 06:25:02;;;;;;;;;;;25.40;55.50;;;21.46;91.96;95624.66;4981045;28;20374;-48
2023/08/15 06:27:28;;;;;;;;;;;25.50;55.50;;;21.47;90.90;95631.69;4988289;28;19913;-48
2023/08/15 06:29:54;;;;;;;;;;;25.50;55.50;;;21.48;89.99;95636.75;4995490;28;20368;-48
2023/08/15 06:32:28;;;;;;;;;;;25.60;55.40;;;21.52;89.45;95649.63;4994792;28;19913;-49
2023/08/15 06:34:54;;;;;;;;;;;25.70;55.50;;;21.55;90.16;95643.56;4989279;28;19909;-48
2023/08/15 06:37:20;;;;;;;;;;;25.70;55.40;;;21.63;90.71;95650.81;4995322;28;19956;-52
2023/08/15 06:39:45;;;;;;;;;;;25.80;55.40;;;21.64;90.35;95658.63;4991041;28;19963;-52
2023/08/15 06:42:11;;;;;;;;;;;25.80;55.30;;;21.65;89.65;95657.47;4990591;28;19909;-49
2023/08/15 06:44:37;;;;;;;;;;;25.90;55.20;;;21.67;89.63;95655.22;4993475;28;19940;-51
2023/08/15 06:47:03;;;;;;;;;;;25.90;55.20;;;21.72;89.53;95662.38;4995417;28;19921;-47
2023/08/15 06:49:29;;;;;;;;;;;26.00;55.20;;;21.71;90.27;95666.97;4995779;28;19918;-46
2023/08/15 06:51:55;;;;;;;;;;;26.00;55.10;;;21.75;90.24;95667.13;4994377;28;20303;-46
2023/08/15 06:54:21;;;;;;;;;;;26.10;55.10;;;21.80;88.75;95672.34;4995461;28;19910;-47
2023/08/15 06:56:46;;;;;;;;;;;26.10;55.10;;;21.74;86.19;95675.59;4994337;28;19909;-45
2023/08/15 06:59:12;;;;;;;;;;;26.10;55.00;;;21.86;86.89;95684.56;4995355;28;20000;-46
2023/08/15 07:01:38;;;;;;;;;;;26.20;55.10;;;21.95;87.46;95692.59;4995054;28;19970;-46
2023/08/15 07:04:04;;;;;;;;;;;26.30;55.00;;;22.05;87.30;95680.53;4986697;28;19909;-50
2023/08/15 07:06:29;;;;;;;;;;;26.40;55.00;;;22.14;88.24;95694.81;4995019;28;19913;-46
2023/08/15 07:08:55;;;;;;;;;;;26.50;54.90;;;22.25;87.29;95700.59;4994169;28;19963;-46
2023/08/15 07:11:21;;;;;;;;;;;26.60;54.80;;;22.37;86.16;95700.63;4992865;28;19955;-47
2023/08/15 07:13:47;;;;;;;;;;;26.80;54.70;;;22.51;85.01;95701.13;4995414;28;19909;-45
2023/08/15 07:16:12;;;;;;;;;;;27.00;54.60;;;22.60;83.07;95704.50;4993814;28;19914;-46
2023/08/15 07:18:38;;;;;;;;;;;27.20;54.60;;;22.84;81.86;95708.34;4994963;28;20283;-47
2023/08/15 07:21:04;;;;;;;;;;;27.50;54.40;;;23.28;79.17;95697.69;4993901;28;19997;-47
2023/08/15 07:23:30;;;;;;;;;;;28.00;54.10;;;23.66;77.50;95701.88;4994663;28;19910;-46
2023/08/15 07:25:57;;;;;;;;;;;28.40;53.80;;;24.04;74.28;95703.34;4994648;28;19914;-47
2023/08/15 07:28:23;;;;;;;;;;;28.90;53.60;;;24.32;73.81;95708.72;4992605;28;19914;-48
2023/08/15 07:30:49;;;;;;;;;;;29.20;53.40;;;24.56;72.50;95708.59;4994835;28;19917;-48
2023/08/15 07:33:16;;;;;;;;;;;29.40;53.00;;;24.73;70.69;95715.66;4993574;28;19909;-50
2023/08/15 07:35:42;;;;;;;;;;;29.70;52.70;;;24.90;69.69;95719.94;4994555;28;19909;-49
2023/08/15 07:38:08;;;;;;;;;;;29.80;52.40;;;25.03;68.30;95724.13;4993757;28;19909;-51
2023/08/15 07:40:34;;;;;;;;;;;30.00;52.20;;;25.13;68.19;95726.34;4985465;28;19909;-53
2023/08/15 07:43:00;;;;;;;;;;;30.10;52.00;;;25.19;68.24;95731.50;4994643;28;19916;-48
2023/08/15 07:45:26;;;;;;;;;;;30.10;51.70;;;25.19;67.27;95736.97;4993375;28;19909;-47
2023/08/15 07:47:53;;;;;;;;;;;30.20;51.60;;;25.18;67.16;95736.19;4994542;28;20411;-51
2023/08/15 07:50:26;;;;;;;;;;;30.20;51.40;;;25.19;67.32;95743.19;4992336;28;19959;-48
2023/08/15 07:52:58;;;;;;;;;;;30.30;51.20;;;25.18;68.14;95752.53;4984392;28;20319;-48
2023/08/15 07:55:33;;;;;;;;;;;30.20;51.20;;;25.17;67.97;95758.34;4980985;28;19921;-47
2023/08/15 07:58:00;;;;;;;;;;;30.20;51.70;;;25.21;68.88;95751.81;4982432;28;19910;-48
2023/08/15 08:00:25;;;;;;;;;;;30.20;51.10;;;25.10;69.39;95754.28;4992264;28;19909;-48
2023/08/15 08:02:52;;;;;;;;;;;30.10;50.90;;;25.20;69.46;95758.44;4992521;28;20303;-47
2023/08/15 08:05:18;;;;;;;;;;;30.00;50.90;;;25.19;69.34;95751.38;4992576;28;19941;-48
2023/08/15 08:07:45;;;;;;;;;;;29.90;51.00;;;25.23;69.49;95756.91;4994126;28;19945;-49
2023/08/15 08:10:11;;;;;;;;;;;29.90;51.00;;;25.29;69.63;95763.66;4993098;28;19913;-47
2023/08/15 08:12:37;;;;;;;;;;;29.90;51.00;;;25.40;68.45;95756.53;4994110;28;19913;-46
2023/08/15 08:15:04;;;;;;;;;;;30.00;51.00;;;25.52;65.52;95756.41;4992949;28;19916;-52
2023/08/15 08:17:30;;;;;;;;;;;30.10;50.90;;;25.78;64.72;95749.56;4993891;28;19944;-51
2023/08/15 08:19:55;;;;;;;;;;;30.30;50.60;;;26.27;63.22;95744.31;4993772;28;19945;-49
2023/08/15 08:22:21;;;;;;;;;;;30.80;50.30;;;26.65;58.80;95737.22;4992905;28;19936;-49
2023/08/15 08:24:50;;;;;;;;;;;31.50;50.00;;;27.15;56.44;95729.06;4993660;28;19909;-50
2023/08/15 08:27:16;;;;;;;;;;;32.00;49.50;;;27.52;55.15;95740.13;4992892;28;19967;-53
2023/08/15 08:29:42;;;;;;;;;;;32.40;49.20;;;27.93;54.75;95745.00;4992269;28;19914;-49
2023/08/15 08:32:07;;;;;;;;;;;32.80;48.80;;;28.22;54.14;95754.31;4993412;28;19944;-51
2023/08/15 08:34:35;;;;;;;;;;;33.10;48.50;;;28.52;53.28;95746.84;4991890;28;19909;-49
2023/08/15 08:37:00;;;;;;;;;;;33.40;48.20;;;28.91;52.17;95753.84;4993964;28;19933;-48
2023/08/15 08:39:26;;;;;;;;;;;33.70;47.60;;;29.32;51.67;95753.78;4992093;28;19909;-51
2023/08/15 08:41:52;;;;;;;;;;;34.10;47.00;;;29.57;49.76;95745.69;4993667;28;19928;-48
2023/08/15 08:44:19;;;;;;;;;;;34.60;46.60;;;29.88;47.30;95745.09;5009236;28;19960;-50
2023/08/15 08:46:45;;;;;;;;;;;35.00;46.00;;;30.26;45.61;95753.88;5008248;28;20395;-48
2023/08/15 08:49:12;;;;;;;;;;;35.40;45.40;;;30.58;46.00;95751.22;5008263;28;19917;-52
2023/08/15 08:51:38;;;;;;;;;;;35.80;45.10;;;30.84;45.23;95744.63;4992421;28;19909;-52
2023/08/15 08:54:04;;;;;;;;;;;36.10;44.20;;;30.74;45.26;95752.81;4986051;28;19910;-52
2023/08/15 08:56:32;;;;;;;;;;;36.40;43.40;;;31.29;45.63;95755.19;4984357;28;19963;-48
2023/08/15 08:59:12;;;;;;;;;;;36.70;43.40;;;31.72;45.09;95755.94;4980003;28;19909;-51
2023/08/15 09:01:39;;;;;;;;;;;37.00;43.10;;;31.72;43.96;95752.41;4992927;28;19983;-49
2023/08/15 09:04:05;;;;;;;;;;;37.40;42.70;;;31.99;44.21;95759.00;5003863;28;19916;-48
2023/08/15 09:06:31;;;;;;;;;;;37.60;42.40;;;32.09;43.62;95754.66;4975384;28;20292;-47
2023/08/15 09:08:59;;;;;;;;;;;37.90;41.90;;;32.25;43.09;95749.47;4991904;28;19913;-53
2023/08/15 09:11:36;;;;;;;;;;;38.10;41.30;;;32.43;42.00;95752.13;4979583;28;19917;-50
2023/08/15 09:14:04;;;;;;;;;;;38.30;41.10;;;32.64;42.52;95748.47;4993043;28;19909;-52
2023/08/15 09:16:31;;;;;;;;;;;38.50;40.80;;;32.58;41.96;95744.56;4978563;28;19936;-51
2023/08/15 09:19:02;;;;;;;;;;;38.70;40.60;;;32.86;41.90;95743.56;4993018;28;20287;-51
2023/08/15 09:21:29;;;;;;;;;;;38.90;40.40;;;32.97;41.68;95742.69;4987454;28;20000;-51
2023/08/15 09:23:57;;;;;;;;;;;39.10;40.10;;;32.77;41.71;95740.50;4985499;28;19917;-51
2023/08/15 09:26:23;;;;;;;;;;;39.20;39.40;;;32.90;41.88;95747.09;4991541;28;20426;-49
2023/08/15 09:28:50;;;;;;;;;;;39.30;39.20;;;33.54;41.36;95742.25;4980982;28;20258;-48
2023/08/15 09:31:15;;;;;;;;;;;39.40;39.10;;;33.96;39.01;95746.50;4991715;28;19917;-52
2023/08/15 09:33:41;;;;;;;;;;;39.60;38.90;;;34.15;36.78;95741.56;4982160;28;19917;-50
2023/08/15 09:36:09;;;;;;;;;;;39.90;38.90;;;34.40;36.39;95728.19;4992716;28;19914;-48
2023/08/15 09:38:39;;;;;;;;;;;40.10;38.60;;;34.72;37.25;95736.06;4991475;28;19909;-49
2023/08/15 09:41:09;;;;;;;;;;;40.50;38.30;;;34.74;36.56;95738.41;4988162;28;19917;-49
2023/08/15 09:43:34;;;;;;;;;;;40.70;37.90;;;34.87;37.06;95733.84;4986553;28;19940;-52
2023/08/15 09:46:01;;;;;;;;;;;40.70;37.40;;;35.00;35.52;95731.25;4984899;28;19952;-50
2023/08/15 09:48:28;;;;;;;;;;;41.00;37.20;;;35.04;35.59;95740.34;4986283;28;20394;-56
2023/08/15 09:50:56;;;;;;;;;;;41.10;36.30;;;35.00;35.35;95742.34;4991552;28;20004;-49
2023/08/15 09:53:25;;;;;;;;;;;41.20;35.80;;;35.39;34.25;95732.63;4995868;28;20003;-50
2023/08/15 09:55:52;;;;;;;;;;;41.40;35.50;;;35.39;33.97;95725.09;4984352;28;20392;-50
2023/08/15 09:58:19;;;;;;;;;;;41.60;35.40;;;35.53;33.65;95721.28;4979307;28;19940;-49
2023/08/15 10:00:51;;;;;;;;;;;41.80;35.40;;;36.19;32.93;95722.38;4996398;28;20323;-51
2023/08/15 10:03:33;;;;;;;;;;;42.20;35.30;;;36.02;31.94;95723.53;4993506;28;19917;-54
2023/08/15 10:06:02;;;;;;;;;;;42.20;35.10;;;35.57;31.16;95719.25;5001626;28;19913;-51
2023/08/15 10:08:29;;;;;;;;;;;42.10;34.90;;;35.47;32.58;95720.19;4995191;28;19909;-52
2023/08/15 10:10:58;;;;;;;;;;;41.90;34.90;;;35.24;31.60;95726.56;4996310;28;19971;-52
2023/08/15 10:13:32;;;;;;;;;;;41.70;34.70;;;34.99;32.97;95730.47;4998140;28;19910;-51
2023/08/15 10:16:00;;;;;;;;;;;41.50;34.40;;;35.14;32.97;95721.97;4983588;28;19956;-49
2023/08/15 10:18:26;;;;;;;;;;;41.40;34.50;;;35.12;32.29;95722.41;5004702;28;19910;-48
2023/08/15 10:20:53;;;;;;;;;;;41.30;34.60;;;35.21;32.63;95728.16;4987913;28;19920;-50
2023/08/15 10:23:35;;;;;;;;;;;41.10;34.50;;;35.30;33.01;95713.00;4996125;28;20392;-49
2023/08/15 10:26:02;;;;;;;;;;;41.00;34.40;;;35.42;32.90;95724.25;4995858;28;19960;-48
2023/08/15 10:28:34;;;;;;;;;;;40.90;34.20;;;35.43;32.19;95716.72;4985996;28;19932;-50
2023/08/15 10:31:00;;;;;;;;;;;40.90;34.10;;;35.45;32.99;95725.38;4995847;28;19909;-47
2023/08/15 10:33:31;;;;;;;;;;;40.90;34.10;;;35.41;32.40;95724.66;4994848;28;19956;-48
2023/08/15 10:35:57;;;;;;;;;;;41.00;34.00;;;35.41;32.90;95719.94;4995937;28;19959;-49
2023/08/15 10:38:35;;;;;;;;;;;41.10;33.90;;;35.34;33.32;95727.56;4994974;28;20384;-47
2023/08/15 10:41:16;;;;;;;;;;;41.20;33.80;;;35.25;34.17;95716.25;4982980;28;20067;-47
2023/08/15 10:43:59;;;;;;;;;;;41.10;33.50;;;35.34;35.23;95720.03;4996075;28;19921;-47
2023/08/15 10:46:30;;;;;;;;;;;41.00;33.60;;;35.13;34.00;95715.69;4985780;28;19913;-47
2023/08/15 10:49:04;;;;;;;;;;;41.00;33.60;;;35.14;33.44;95714.47;4992772;28;19924;-50
2023/08/15 10:51:37;;;;;;;;;;;41.20;33.50;;;35.40;35.52;95721.09;4993205;28;20012;-52
2023/08/15 10:54:14;;;;;;;;;;;41.40;33.30;;;35.26;32.96;95713.06;4989547;28;19933;-51
2023/08/15 10:56:42;;;;;;;;;;;41.60;33.20;;;35.45;33.18;95704.00;4988285;28;19987;-52
2023/08/15 10:59:14;;;;;;;;;;;41.90;32.90;;;35.85;33.48;95694.94;4985032;28;19916;-53
2023/08/15 11:01:43;;;;;;;;;;;42.20;32.80;;;35.61;33.49;95694.25;4987480;28;19909;-52
2023/08/15 11:04:17;;;;;;;;;;;42.40;32.70;;;35.38;34.97;95701.38;4991402;28;19921;-49
2023/08/15 11:06:48;;;;;;;;;;;42.30;32.40;;;34.81;34.83;95696.78;4992540;28;20296;-48
2023/08/15 11:09:15;;;;;;;;;;;42.00;32.40;;;34.81;34.88;95699.56;4988512;28;19909;-47
2023/08/15 11:11:41;;;;;;;;;;;41.70;32.50;;;35.09;34.41;95692.78;4993439;28;19909;-49
2023/08/15 11:14:18;;;;;;;;;;;41.80;32.50;;;35.74;33.38;95688.88;4993258;28;20030;-52
2023/08/15 11:16:49;;;;;;;;;;;42.20;32.40;;;36.35;32.76;95691.94;4991611;28;20291;-50